Data for 09/26/2017

Time Sea-Level Adjusted Pressure Absolute Pressure Temperature Relative Humidity Dew Point   
(mb) (inHg) (mb) (inHg) (C) (F) (%) (C) (F)
00:05 1021 30.15 850 25.1 7.9 46.2 67 2.2 35.9
00:10 1021 30.15 850 25.1 7.9 46.1 67 2.1 35.7
00:15 1021 30.15 850 25.1 7.9 46.2 66 2 35.6
00:20 1021 30.15 850 25.1 8 46.4 66 2.1 35.8
00:25 1021 30.15 850 25.1 8.1 46.5 66 2.1 35.8
00:30 1021 30.15 850 25.1 8 46.3 66 2.1 35.7
00:35 1021 30.15 850 25.1 7.8 46 67 2.2 35.9
00:40 1021 30.15 850 25.1 7.8 46.1 65 1.6 34.8
00:45 1021 30.15 850 25.1 8 46.3 66 1.9 35.5
00:50 1021 30.15 850 25.1 7.9 46.3 66 2 35.5
00:55 1021 30.15 851 25.13 8 46.4 66 2 35.7
01:00 1021 30.15 851 25.13 8 46.4 66 2 35.6
01:05 1021 30.15 850 25.1 7.9 46.3 66 2.1 35.7
01:10 1021 30.15 850 25.1 7.9 46.2 66 1.9 35.5
01:15 1021 30.15 850 25.1 7.9 46.2 66 2 35.5
01:20 1021 30.15 851 25.13 7.9 46.2 65 1.8 35.3
01:25 1021 30.15 851 25.13 7.8 46 70 2.6 36.7
01:30 1021 30.15 851 25.13 7.7 45.9 67 1.9 35.4
01:35 1021 30.15 850 25.1 7.7 45.9 68 2.1 35.8
01:40 1021 30.15 850 25.1 7.8 46.1 68 2.3 36.2
01:45 1021 30.15 851 25.13 7.8 46.1 69 2.5 36.5
01:50 1021 30.15 851 25.13 7.7 45.9 68 2.2 36
01:55 1021 30.15 851 25.13 7.6 45.7 68 2.1 35.9
02:00 1021 30.15 851 25.13 7.6 45.7 68 2.1 35.8
02:05 1021 30.15 851 25.13 7.7 45.9 67 1.9 35.5
02:10 1022 30.18 851 25.13 7.8 46.1 67 2.1 35.8
02:15 1022 30.18 851 25.13 7.8 46 65 1.7 35.1
02:20 1022 30.18 851 25.13 7.8 46.1 66 1.9 35.4
02:25 1022 30.18 851 25.13 7.8 46.1 66 1.8 35.3
02:30 1022 30.18 851 25.13 7.9 46.2 66 2 35.6
02:35 1022 30.18 851 25.13 7.9 46.2 69 2.5 36.5
02:40 1022 30.18 851 25.13 7.7 45.8 73 3.1 37.6
02:45 1022 30.18 851 25.13 7.2 44.9 73 2.8 37
02:50 1022 30.18 851 25.13 7.1 44.8 72 2.4 36.3
02:55 1022 30.18 851 25.13 7.3 45.2 68 1.9 35.4
03:00 1022 30.18 851 25.13 7.6 45.6 68 2 35.7
03:05 1022 30.18 851 25.13 7.6 45.6 68 2.2 35.9
03:10 1022 30.18 851 25.13 7.6 45.7 69 2.2 36
03:15 1022 30.18 851 25.13 7.7 45.9 68 2.3 36.1
03:20 1022 30.18 851 25.13 7.7 45.8 68 2.2 35.9
03:25 1022 30.18 851 25.13 7.7 45.8 69 2.4 36.2
03:30 1022 30.18 851 25.13 7.7 45.8 69 2.5 36.4
03:35 1022 30.18 851 25.13 7.6 45.8 69 2.3 36.2
03:40 1022 30.18 851 25.13 7.6 45.8 70 2.4 36.4
03:45 1022 30.18 851 25.13 7.6 45.6 69 2.4 36.2
03:50 1022 30.18 851 25.13 7.5 45.5 70 2.3 36.2
03:55 1022 30.18 851 25.13 7.5 45.5 70 2.4 36.3
04:00 1022 30.18 851 25.13 7.5 45.4 70 2.3 36.1
04:05 1022 30.18 851 25.13 7.4 45.4 70 2.4 36.3
04:10 1022 30.18 851 25.13 7.4 45.2 71 2.5 36.5
04:15 1022 30.18 851 25.13 7.3 45.2 71 2.5 36.5
04:20 1022 30.18 851 25.13 7.3 45.2 71 2.5 36.4
04:25 1022 30.18 851 25.13 7.3 45.2 71 2.4 36.3
04:30 1022 30.18 851 25.13 7.3 45.2 71 2.4 36.3
04:35 1022 30.18 851 25.13 7.3 45.1 71 2.4 36.3
04:40 1022 30.18 851 25.13 7.3 45.2 70 2.3 36.2
04:45 1022 30.18 851 25.13 7.4 45.3 70 2.4 36.3
04:50 1022 30.18 851 25.13 7.5 45.4 70 2.4 36.3
04:55 1022 30.18 851 25.13 7.5 45.4 70 2.4 36.2